createdAt,value
2018-02-19T00:01:02.260Z,-0.70
2018-02-19T00:03:28.542Z,-0.60
2018-02-19T00:05:54.915Z,-0.60
2018-02-19T00:08:21.199Z,-0.70
2018-02-19T00:10:47.490Z,-0.70
2018-02-19T00:13:13.800Z,-0.70
2018-02-19T00:15:40.106Z,-0.80
2018-02-19T00:18:06.379Z,-0.90
2018-02-19T00:20:32.664Z,-0.90
2018-02-19T00:22:58.952Z,-1.00
2018-02-19T00:25:26.040Z,-0.90
2018-02-19T00:27:53.056Z,-0.80
2018-02-19T00:30:20.159Z,-0.90
2018-02-19T00:32:46.457Z,-1.00
2018-02-19T00:35:12.755Z,-1.00
2018-02-19T00:37:39.798Z,-1.20
2018-02-19T00:40:06.815Z,-1.20
2018-02-19T00:42:33.102Z,-1.20
2018-02-19T00:44:59.403Z,-1.10
2018-02-19T00:47:25.682Z,-1.20
2018-02-19T00:49:52.008Z,-1.20
2018-02-19T00:52:18.353Z,-1.20
2018-02-19T00:54:44.631Z,-1.30
2018-02-19T00:57:12.672Z,-1.20
2018-02-19T00:59:38.969Z,-1.20
2018-02-19T01:02:05.308Z,-1.10
2018-02-19T01:04:31.594Z,-1.10
2018-02-19T01:06:59.424Z,-1.10
2018-02-19T01:09:25.731Z,-1.10
2018-02-19T01:11:52.059Z,-1.10
2018-02-19T01:14:18.475Z,-1.10
2018-02-19T01:16:44.773Z,-1.10
2018-02-19T01:19:11.084Z,-1.20
2018-02-19T01:21:37.363Z,-1.30
2018-02-19T01:24:04.387Z,-1.30
2018-02-19T01:26:31.439Z,-1.40
2018-02-19T01:28:58.463Z,-1.40
2018-02-19T01:31:24.770Z,-1.40
2018-02-19T01:33:51.105Z,-1.20
2018-02-19T01:36:17.395Z,-1.30
2018-02-19T01:38:43.726Z,-1.30
2018-02-19T01:41:10.022Z,-1.50
2018-02-19T01:43:37.389Z,-1.40
2018-02-19T01:46:05.475Z,-1.40
2018-02-19T01:48:32.523Z,-1.40
2018-02-19T01:50:59.559Z,-1.30
2018-02-19T01:53:26.575Z,-1.40
2018-02-19T01:55:52.896Z,-1.40
2018-02-19T01:58:21.161Z,-1.30
2018-02-19T02:00:47.939Z,-1.20
2018-02-19T02:03:14.330Z,-1.30
2018-02-19T02:05:40.610Z,-1.20
2018-02-19T02:08:08.382Z,-1.10
2018-02-19T02:10:35.418Z,-1.00
2018-02-19T02:13:01.709Z,-1.10
2018-02-19T02:15:27.986Z,-1.00
2018-02-19T02:17:55.020Z,-1.10
2018-02-19T02:20:21.352Z,-1.20
2018-02-19T02:22:47.636Z,-1.00
2018-02-19T02:25:13.915Z,-1.00
2018-02-19T02:27:40.987Z,-0.90
2018-02-19T02:30:08.008Z,-1.00
2018-02-19T02:32:35.055Z,-1.10
2018-02-19T02:35:02.127Z,-1.30
2018-02-19T02:37:29.154Z,-1.40
2018-02-19T02:39:55.484Z,-1.40
2018-02-19T02:42:22.524Z,-1.40
2018-02-19T02:44:48.828Z,-1.40
2018-02-19T02:47:15.128Z,-1.30
2018-02-19T02:49:41.472Z,-1.20
2018-02-19T02:52:07.763Z,-1.20
2018-02-19T02:54:34.802Z,-1.40
2018-02-19T02:57:01.111Z,-1.40
2018-02-19T02:59:27.451Z,-1.40
2018-02-19T03:01:53.795Z,-1.40
2018-02-19T03:04:20.871Z,-1.50
2018-02-19T03:06:48.258Z,-1.50
2018-02-19T03:09:14.605Z,-1.40
2018-02-19T03:11:40.911Z,-1.40
2018-02-19T03:14:07.223Z,-1.40
2018-02-19T03:16:33.564Z,-1.40
2018-02-19T03:18:59.859Z,-1.40
2018-02-19T03:21:26.883Z,-1.50
2018-02-19T03:23:53.154Z,-1.50
2018-02-19T03:26:19.434Z,-1.50
2018-02-19T03:28:46.506Z,-1.50
2018-02-19T03:31:13.565Z,-1.50
2018-02-19T03:33:40.602Z,-1.60
2018-02-19T03:36:08.233Z,-1.70
2018-02-19T03:38:34.531Z,-1.70
2018-02-19T03:41:00.840Z,-1.70
2018-02-19T03:43:27.871Z,-1.50
2018-02-19T03:45:54.907Z,-1.50
2018-02-19T03:48:21.187Z,-1.50
2018-02-19T03:50:47.475Z,-1.50
2018-02-19T03:53:14.787Z,-1.40
2018-02-19T03:55:41.107Z,-1.40
2018-02-19T03:58:07.363Z,-1.40
2018-02-19T04:00:33.672Z,-1.40
2018-02-19T04:02:59.974Z,-1.40
2018-02-19T04:05:26.894Z,-1.30
2018-02-19T04:07:53.942Z,-1.50
2018-02-19T04:10:20.301Z,-1.50
2018-02-19T04:12:46.632Z,-1.50
2018-02-19T04:15:12.927Z,-1.50
2018-02-19T04:17:39.244Z,-1.50
2018-02-19T04:20:05.551Z,-1.40
2018-02-19T04:22:31.875Z,-1.40
2018-02-19T04:24:58.153Z,-1.30
2018-02-19T04:27:24.446Z,-1.50
2018-02-19T04:29:50.798Z,-1.60
2018-02-19T04:32:17.084Z,-1.60
2018-02-19T04:34:43.358Z,-1.60
2018-02-19T04:37:09.649Z,-1.70
2018-02-19T04:39:35.944Z,-1.70
2018-02-19T04:42:03.002Z,-1.70
2018-02-19T04:44:36.968Z,-1.60
2018-02-19T04:47:03.291Z,-1.60
2018-02-19T04:49:29.579Z,-1.50
2018-02-19T04:51:55.864Z,-1.40
2018-02-19T04:54:22.183Z,-1.50
2018-02-19T04:56:48.486Z,-1.40
2018-02-19T04:59:14.842Z,-1.40
2018-02-19T05:01:41.132Z,-1.40
2018-02-19T05:04:07.407Z,-1.50
2018-02-19T05:06:33.678Z,-1.60
2018-02-19T05:09:00.704Z,-1.70
2018-02-19T05:11:27.015Z,-1.70
2018-02-19T05:13:53.303Z,-1.60
2018-02-19T05:16:20.261Z,-1.80
2018-02-19T05:18:46.571Z,-1.80
2018-02-19T05:21:12.867Z,-1.90
2018-02-19T05:23:39.168Z,-1.80
2018-02-19T05:26:05.463Z,-1.70
2018-02-19T05:28:31.759Z,-1.50
2018-02-19T05:30:58.083Z,-1.50
2018-02-19T05:33:24.391Z,-1.60
2018-02-19T05:35:50.691Z,-1.60
2018-02-19T05:38:16.971Z,-1.60
2018-02-19T05:40:43.248Z,-1.60
2018-02-19T05:43:09.544Z,-1.50
2018-02-19T05:45:35.830Z,-1.60
2018-02-19T05:48:02.145Z,-1.60
2018-02-19T05:50:28.431Z,-1.50
2018-02-19T05:52:54.743Z,-1.60
2018-02-19T05:55:21.034Z,-1.70
2018-02-19T05:57:47.334Z,-1.90
2018-02-19T06:00:14.403Z,-1.80
2018-02-19T06:02:40.703Z,-1.80
2018-02-19T06:05:06.975Z,-1.70
2018-02-19T06:07:33.255Z,-1.60
2018-02-19T06:09:59.559Z,-1.60
2018-02-19T06:12:25.961Z,-1.60
2018-02-19T06:14:52.959Z,-1.90
2018-02-19T06:17:19.276Z,-1.90
2018-02-19T06:19:45.608Z,-1.80
2018-02-19T06:22:11.913Z,-1.70
2018-02-19T06:24:38.230Z,-1.80
2018-02-19T06:27:05.019Z,-1.80
2018-02-19T06:29:31.328Z,-1.80
2018-02-19T06:31:57.622Z,-2.00
2018-02-19T06:34:23.926Z,-2.00
2018-02-19T06:36:50.222Z,-1.80
2018-02-19T06:39:16.494Z,-1.70
2018-02-19T06:41:43.519Z,-1.60
2018-02-19T06:44:10.836Z,-1.60
2018-02-19T06:46:37.111Z,-1.50
2018-02-19T06:49:03.410Z,-1.70
2018-02-19T06:51:29.701Z,-1.80
2018-02-19T06:53:56.725Z,-2.10
2018-02-19T06:56:23.752Z,-2.10
2018-02-19T06:58:50.497Z,-2.20
2018-02-19T07:01:17.312Z,-2.10
2018-02-19T07:03:43.624Z,-2.20
2018-02-19T07:06:09.969Z,-2.10
2018-02-19T07:08:36.298Z,-1.90
2018-02-19T07:11:02.582Z,-1.90
2018-02-19T07:13:29.635Z,-2.00
2018-02-19T07:15:56.659Z,-1.80
2018-02-19T07:18:22.956Z,-1.80
2018-02-19T07:20:49.243Z,-1.70
2018-02-19T07:23:16.255Z,-1.50
2018-02-19T07:25:42.557Z,-1.50
2018-02-19T07:28:08.886Z,-1.60
2018-02-19T07:30:35.187Z,-1.50
2018-02-19T07:33:01.519Z,-1.50
2018-02-19T07:35:28.561Z,-1.10
2018-02-19T07:37:54.923Z,-1.10
2018-02-19T07:40:21.224Z,-0.90
2018-02-19T07:42:48.245Z,-0.70
2018-02-19T07:45:14.538Z,-0.80
2018-02-19T07:47:40.865Z,-0.60
2018-02-19T07:50:07.142Z,-0.50
2018-02-19T07:52:33.443Z,-0.30
2018-02-19T07:54:59.772Z,-0.30
2018-02-19T07:57:26.082Z,-0.30
2018-02-19T07:59:52.378Z,-0.30
2018-02-19T08:02:19.416Z,-0.30
2018-02-19T08:04:46.446Z,-0.20
2018-02-19T08:07:12.756Z,-0.20
2018-02-19T08:09:39.028Z,-0.20
2018-02-19T08:12:07.074Z,0.00
2018-02-19T08:14:33.354Z,0.00
2018-02-19T08:16:59.628Z,0.00
2018-02-19T08:19:27.031Z,-0.10
2018-02-19T08:21:54.310Z,0.10
2018-02-19T08:24:20.644Z,0.10
2018-02-19T08:26:46.950Z,0.10
2018-02-19T08:29:13.227Z,0.10
2018-02-19T08:31:39.506Z,0.10
2018-02-19T08:34:05.804Z,0.10
2018-02-19T08:36:32.099Z,0.10
2018-02-19T08:38:58.410Z,0.20
2018-02-19T08:41:25.365Z,0.20
2018-02-19T08:43:51.675Z,0.20
2018-02-19T08:46:18.020Z,0.30
2018-02-19T08:48:44.306Z,0.50
2018-02-19T08:51:10.600Z,0.40
2018-02-19T08:53:36.878Z,0.40
2018-02-19T08:56:03.911Z,0.40
2018-02-19T08:58:30.940Z,0.40
2018-02-19T09:00:57.252Z,0.40
2018-02-19T09:03:23.555Z,0.30
2018-02-19T09:05:50.574Z,0.60
2018-02-19T09:08:17.605Z,0.70
2018-02-19T09:10:43.890Z,0.60
2018-02-19T09:13:10.180Z,0.80
2018-02-19T09:15:37.226Z,1.00
2018-02-19T09:18:04.299Z,1.00
2018-02-19T09:20:30.579Z,1.00
2018-02-19T09:22:56.861Z,1.00
2018-02-19T09:25:23.131Z,1.00
2018-02-19T09:27:49.459Z,0.90
2018-02-19T09:30:15.740Z,1.00
2018-02-19T09:32:42.759Z,1.10
2018-02-19T09:35:09.053Z,1.00
2018-02-19T09:37:35.349Z,1.10
2018-02-19T09:40:02.435Z,1.10
2018-02-19T09:42:28.727Z,1.10
2018-02-19T09:44:55.757Z,1.20
2018-02-19T09:47:22.786Z,1.20
2018-02-19T09:49:49.067Z,1.20
2018-02-19T09:52:15.399Z,1.30
2018-02-19T09:54:41.691Z,1.40
2018-02-19T09:57:08.739Z,1.50
2018-02-19T09:59:35.766Z,1.60
2018-02-19T10:02:02.048Z,1.60
2018-02-19T10:04:28.363Z,1.80
2018-02-19T10:06:55.419Z,1.80
2018-02-19T10:09:21.711Z,1.70
2018-02-19T10:11:48.000Z,1.70
2018-02-19T10:14:14.311Z,1.90
2018-02-19T10:16:41.626Z,1.90
2018-02-19T10:19:07.941Z,1.70
2018-02-19T10:21:34.241Z,1.80
2018-02-19T10:24:00.550Z,1.70
2018-02-19T10:26:26.851Z,1.70
2018-02-19T10:28:53.156Z,1.80
2018-02-19T10:31:19.465Z,1.80
2018-02-19T10:33:45.785Z,1.80
2018-02-19T10:36:12.087Z,1.70
2018-02-19T10:38:39.168Z,1.60
2018-02-19T10:41:05.491Z,1.60
2018-02-19T10:43:31.757Z,1.60
2018-02-19T10:45:58.038Z,1.60
2018-02-19T10:48:25.071Z,2.00
2018-02-19T10:50:52.141Z,2.10
2018-02-19T10:53:18.440Z,2.10
2018-02-19T10:55:44.734Z,2.10
2018-02-19T10:58:11.024Z,2.00
2018-02-19T11:00:43.419Z,1.80
2018-02-19T11:03:11.111Z,1.80
2018-02-19T11:05:37.419Z,1.80
2018-02-19T11:08:03.724Z,1.90
2018-02-19T11:10:30.499Z,1.90
2018-02-19T11:12:56.787Z,1.90
2018-02-19T11:15:23.827Z,2.00
2018-02-19T11:17:50.880Z,2.10
2018-02-19T11:20:17.911Z,2.30
2018-02-19T11:22:44.220Z,2.30
2018-02-19T11:25:10.519Z,2.60
2018-02-19T11:27:36.794Z,2.80
2018-02-19T11:30:03.123Z,2.90
2018-02-19T11:32:29.398Z,2.80
2018-02-19T11:34:55.707Z,2.60
2018-02-19T11:37:22.012Z,2.40
2018-02-19T11:39:48.314Z,2.40
2018-02-19T11:42:14.639Z,2.40
2018-02-19T11:44:40.940Z,2.30
2018-02-19T11:47:07.243Z,2.20
2018-02-19T11:49:33.524Z,2.10
2018-02-19T11:51:59.812Z,1.90
2018-02-19T11:54:26.879Z,1.80
2018-02-19T11:56:53.178Z,1.80
2018-02-19T11:59:20.979Z,1.90
2018-02-19T12:01:47.259Z,1.90
2018-02-19T12:04:13.543Z,2.00
2018-02-19T12:06:39.834Z,1.90
2018-02-19T12:09:06.851Z,1.90
2018-02-19T12:11:33.170Z,1.90
2018-02-19T12:13:59.446Z,1.90
2018-02-19T12:16:25.764Z,1.80
2018-02-19T12:18:53.156Z,1.90
2018-02-19T12:21:20.307Z,1.60
2018-02-19T12:23:46.605Z,1.60
2018-02-19T12:26:12.887Z,1.60
2018-02-19T12:28:39.186Z,1.70
2018-02-19T12:31:06.253Z,1.90
2018-02-19T12:33:32.591Z,1.80
2018-02-19T12:35:58.904Z,1.90
2018-02-19T12:38:26.669Z,1.80
2018-02-19T12:40:53.692Z,1.90
2018-02-19T12:43:20.020Z,1.90
2018-02-19T12:45:46.303Z,1.90
2018-02-19T12:48:12.634Z,1.90
2018-02-19T12:50:38.917Z,2.00
2018-02-19T12:53:05.950Z,2.10
2018-02-19T12:55:32.288Z,2.10
2018-02-19T12:57:58.583Z,2.10
2018-02-19T13:00:24.915Z,2.00
2018-02-19T13:02:51.228Z,1.80
2018-02-19T13:05:17.512Z,1.80
2018-02-19T13:07:44.572Z,1.70
2018-02-19T13:10:11.591Z,1.70
2018-02-19T13:12:37.907Z,1.70
2018-02-19T13:15:04.254Z,1.60
2018-02-19T13:17:31.773Z,1.60
2018-02-19T13:19:58.459Z,1.80
2018-02-19T13:22:24.800Z,1.90
2018-02-19T13:24:51.077Z,1.90
2018-02-19T13:27:17.385Z,1.90
2018-02-19T13:29:43.654Z,1.70
2018-02-19T13:32:10.975Z,1.60
2018-02-19T13:34:37.274Z,1.70
2018-02-19T13:37:04.304Z,1.90
2018-02-19T13:39:30.599Z,1.90
2018-02-19T13:41:56.891Z,1.90
2018-02-19T13:44:23.949Z,1.80
2018-02-19T13:46:51.887Z,1.70
2018-02-19T13:49:18.183Z,1.70
2018-02-19T13:51:44.910Z,1.90
2018-02-19T13:54:11.203Z,1.80
2018-02-19T13:56:37.502Z,1.90
2018-02-19T13:59:03.800Z,1.80
2018-02-19T14:01:30.091Z,1.90
2018-02-19T14:03:56.367Z,1.80
2018-02-19T14:06:23.335Z,1.80
2018-02-19T14:08:49.738Z,1.80
2018-02-19T14:11:16.047Z,1.80
2018-02-19T14:13:42.693Z,1.80
2018-02-19T14:16:09.026Z,1.90
2018-02-19T14:18:35.331Z,2.00
2018-02-19T14:21:02.636Z,2.00
2018-02-19T14:23:28.966Z,1.80
2018-02-19T14:25:55.283Z,1.70
2018-02-19T14:28:21.570Z,1.50
2018-02-19T14:30:48.604Z,1.30
2018-02-19T14:33:15.688Z,1.30
2018-02-19T14:35:41.986Z,1.30
2018-02-19T14:38:08.293Z,1.20
2018-02-19T14:40:34.605Z,1.20
2018-02-19T14:43:00.891Z,1.20
2018-02-19T14:45:27.183Z,1.20
2018-02-19T14:47:56.271Z,1.30
2018-02-19T14:50:23.121Z,1.40
2018-02-19T14:52:49.423Z,1.20
2018-02-19T14:55:15.708Z,1.10
2018-02-19T14:57:42.007Z,1.10
2018-02-19T15:00:08.568Z,1.10
2018-02-19T15:02:34.872Z,1.10
2018-02-19T15:05:01.155Z,1.00
2018-02-19T15:07:27.436Z,1.00
2018-02-19T15:09:53.930Z,1.00
2018-02-19T15:12:20.431Z,1.00
2018-02-19T15:14:47.463Z,1.00
2018-02-19T15:17:13.775Z,1.00
2018-02-19T15:19:42.226Z,0.90
2018-02-19T15:22:09.255Z,0.90
2018-02-19T15:24:38.066Z,0.80
2018-02-19T15:27:05.119Z,0.80
2018-02-19T15:29:31.888Z,0.80
2018-02-19T15:32:08.242Z,0.80
2018-02-19T15:34:34.540Z,0.80
2018-02-19T15:37:00.827Z,0.70
2018-02-19T15:39:27.131Z,0.70
2018-02-19T15:41:53.427Z,0.50
2018-02-19T15:44:21.014Z,0.40
2018-02-19T15:46:47.311Z,0.40
2018-02-19T15:49:13.603Z,0.30
2018-02-19T15:51:39.891Z,0.30
2018-02-19T15:54:06.935Z,0.10
2018-02-19T15:56:33.363Z,0.10
2018-02-19T15:58:59.653Z,0.00
2018-02-19T16:01:25.931Z,0.00
2018-02-19T16:03:52.236Z,0.00
2018-02-19T16:06:18.546Z,0.00
2018-02-19T16:08:44.891Z,0.00
2018-02-19T16:11:11.174Z,0.00
2018-02-19T16:13:38.211Z,-0.10
2018-02-19T16:16:04.495Z,-0.10
2018-02-19T16:18:30.799Z,-0.10
2018-02-19T16:20:57.127Z,-0.10
2018-02-19T16:23:23.418Z,0.00
2018-02-19T16:25:49.779Z,-0.10
2018-02-19T16:28:16.823Z,-0.20
2018-02-19T16:30:43.862Z,-0.30
2018-02-19T16:33:10.932Z,-0.30
2018-02-19T16:35:37.208Z,-0.30
2018-02-19T16:38:03.506Z,-0.30
2018-02-19T16:40:29.819Z,-0.30
2018-02-19T16:42:57.126Z,-0.30
2018-02-19T16:45:23.459Z,-0.30
2018-02-19T16:47:49.811Z,-0.30
2018-02-19T16:50:16.101Z,-0.30
2018-02-19T16:52:42.407Z,-0.30
2018-02-19T16:55:09.527Z,-0.50
2018-02-19T16:57:36.586Z,-0.50
2018-02-19T17:00:02.923Z,-0.50
2018-02-19T17:02:29.210Z,-0.50
2018-02-19T17:04:55.504Z,-0.50
2018-02-19T17:07:21.824Z,-0.40
2018-02-19T17:09:48.123Z,-0.40
2018-02-19T17:12:14.440Z,-0.40
2018-02-19T17:14:40.723Z,-0.50
2018-02-19T17:17:07.752Z,-0.60
2018-02-19T17:19:49.654Z,-0.60
2018-02-19T17:22:15.983Z,-0.60
2018-02-19T17:24:43.039Z,-0.70
2018-02-19T17:27:09.341Z,-0.80
2018-02-19T17:29:35.610Z,-0.70
2018-02-19T17:32:01.902Z,-0.80
2018-02-19T17:34:28.197Z,-0.80
2018-02-19T17:36:54.480Z,-0.90
2018-02-19T17:39:21.507Z,-0.80
2018-02-19T17:41:47.780Z,-0.80
2018-02-19T17:44:14.117Z,-0.70
2018-02-19T17:46:40.503Z,-0.70
2018-02-19T17:49:06.789Z,-0.70
2018-02-19T17:51:33.090Z,-0.70
2018-02-19T17:53:59.410Z,-0.70
2018-02-19T17:56:26.972Z,-0.70
2018-02-19T17:58:53.310Z,-0.70
2018-02-19T18:01:19.627Z,-0.70
2018-02-19T18:03:46.756Z,-0.70
2018-02-19T18:06:13.791Z,-0.70
2018-02-19T18:08:40.137Z,-0.70
2018-02-19T18:11:06.443Z,-0.70
2018-02-19T18:13:32.753Z,-0.70
2018-02-19T18:15:59.056Z,-0.70
2018-02-19T18:18:25.364Z,-0.70
2018-02-19T18:20:51.646Z,-0.70
2018-02-19T18:23:17.972Z,-0.80
2018-02-19T18:25:44.275Z,-0.80
2018-02-19T18:28:12.350Z,-0.80
2018-02-19T18:30:39.391Z,-0.80
2018-02-19T18:33:06.088Z,-0.80
2018-02-19T18:35:32.395Z,-0.80
2018-02-19T18:37:58.679Z,-0.90
2018-02-19T18:40:25.705Z,-0.80
2018-02-19T18:42:51.989Z,-0.80
2018-02-19T18:45:18.273Z,-0.80
2018-02-19T18:47:45.559Z,-1.00
2018-02-19T18:50:12.572Z,-0.90
2018-02-19T18:52:38.863Z,-0.90
2018-02-19T18:55:05.165Z,-1.00
2018-02-19T18:57:31.447Z,-1.00
2018-02-19T18:59:58.479Z,-1.00
2018-02-19T19:02:24.786Z,-1.00
2018-02-19T19:04:51.112Z,-1.00
2018-02-19T19:07:29.874Z,-0.90
2018-02-19T19:10:09.401Z,-1.00
2018-02-19T19:12:35.671Z,-1.00
2018-02-19T19:15:01.966Z,-0.80
2018-02-19T19:17:28.271Z,-0.80
2018-02-19T19:19:54.577Z,-0.90
2018-02-19T19:22:20.882Z,-1.00
2018-02-19T19:24:47.189Z,-0.90
2018-02-19T19:27:14.275Z,-1.00
2018-02-19T19:29:40.616Z,-1.00
2018-02-19T19:32:06.895Z,-0.90
2018-02-19T19:34:34.071Z,-0.90
2018-02-19T19:37:00.359Z,-1.00
2018-02-19T19:39:26.718Z,-0.90
2018-02-19T19:41:53.063Z,-1.00
2018-02-19T19:44:19.369Z,-1.00
2018-02-19T19:46:45.703Z,-1.00
2018-02-19T19:49:14.083Z,-0.90
2018-02-19T19:51:40.433Z,-0.90
2018-02-19T19:54:06.749Z,-0.90
2018-02-19T19:56:33.039Z,-1.00
2018-02-19T19:58:59.352Z,-1.00
2018-02-19T20:01:25.638Z,-0.90
2018-02-19T20:03:52.675Z,-0.90
2018-02-19T20:06:18.983Z,-1.00
2018-02-19T20:08:46.325Z,-0.90
2018-02-19T20:11:12.635Z,-1.00
2018-02-19T20:13:38.919Z,-1.00
2018-02-19T20:16:06.136Z,-1.00
2018-02-19T20:18:32.443Z,-0.90
2018-02-19T20:20:59.462Z,-0.80
2018-02-19T20:23:27.916Z,-0.80
2018-02-19T20:25:54.306Z,-0.80
2018-02-19T20:28:20.641Z,-0.80
2018-02-19T20:30:47.688Z,-0.80
2018-02-19T20:33:14.716Z,-0.80
2018-02-19T20:35:41.028Z,-0.80
2018-02-19T20:38:07.355Z,-0.90
2018-02-19T20:40:33.730Z,-0.90
2018-02-19T20:43:00.012Z,-1.00
2018-02-19T20:45:26.405Z,-1.00
2018-02-19T20:47:53.495Z,-0.80
2018-02-19T20:50:19.805Z,-0.80
2018-02-19T20:52:46.217Z,-0.70
